createdAt,value
2022-12-09T00:00:08.174Z,10.63
2022-12-09T00:02:35.586Z,10.97
2022-12-09T00:05:02.723Z,10.93
2022-12-09T00:07:29.651Z,10.73
2022-12-09T00:09:56.571Z,9.80
2022-12-09T00:12:23.372Z,9.70
2022-12-09T00:14:50.074Z,10.23
2022-12-09T00:17:16.926Z,9.17
2022-12-09T00:19:43.719Z,9.83
2022-12-09T00:22:10.500Z,10.80
2022-12-09T00:24:37.327Z,9.00
2022-12-09T00:27:04.286Z,9.83
2022-12-09T00:29:31.161Z,9.23
2022-12-09T00:31:58.097Z,10.17
2022-12-09T00:34:25.220Z,9.97
2022-12-09T00:36:52.071Z,10.67
2022-12-09T00:39:18.858Z,9.80
2022-12-09T00:41:45.772Z,10.33
2022-12-09T00:44:12.701Z,9.90
2022-12-09T00:46:39.656Z,11.53
2022-12-09T00:49:06.676Z,9.83
2022-12-09T00:51:33.678Z,10.23
2022-12-09T00:54:00.669Z,10.40
2022-12-09T00:56:29.961Z,10.13
2022-12-09T00:58:58.781Z,9.77
2022-12-09T01:01:27.783Z,10.43
2022-12-09T01:03:55.325Z,9.47
2022-12-09T01:06:24.987Z,9.33
2022-12-09T01:08:52.447Z,9.30
2022-12-09T01:11:26.579Z,10.20
2022-12-09T01:13:57.729Z,9.97
2022-12-09T01:16:27.615Z,10.00
2022-12-09T01:18:57.627Z,9.23
2022-12-09T01:21:24.577Z,9.33
2022-12-09T01:23:51.500Z,9.10
2022-12-09T01:26:18.498Z,9.40
2022-12-09T01:28:45.943Z,9.60
2022-12-09T01:31:17.804Z,9.60
2022-12-09T01:33:45.336Z,9.80
2022-12-09T01:36:29.376Z,10.40
2022-12-09T01:38:59.081Z,9.93
2022-12-09T01:41:26.815Z,9.57
2022-12-09T01:44:24.348Z,10.10
2022-12-09T01:46:57.600Z,10.20
2022-12-09T01:49:43.169Z,10.73
2022-12-09T01:52:22.538Z,10.90
2022-12-09T01:54:52.762Z,10.93
2022-12-09T01:57:19.867Z,9.90
2022-12-09T01:59:47.180Z,10.07
2022-12-09T02:02:18.086Z,9.47
2022-12-09T02:04:49.075Z,9.37
2022-12-09T02:07:18.775Z,9.97
2022-12-09T02:09:46.135Z,9.33
2022-12-09T02:12:44.379Z,8.80
2022-12-09T02:15:36.427Z,9.03
2022-12-09T02:18:32.110Z,9.73
2022-12-09T02:21:10.803Z,10.80
2022-12-09T02:24:03.175Z,9.13
2022-12-09T02:26:55.824Z,9.60
2022-12-09T02:29:56.621Z,8.90
2022-12-09T02:32:45.255Z,9.43
2022-12-09T02:35:50.575Z,9.67
2022-12-09T02:38:23.421Z,10.43
2022-12-09T02:41:07.105Z,9.73
2022-12-09T02:43:46.685Z,10.47
2022-12-09T02:46:20.152Z,10.00
2022-12-09T02:48:55.916Z,9.83
2022-12-09T02:51:28.616Z,9.30
2022-12-09T02:54:05.308Z,9.87
2022-12-09T02:56:34.271Z,9.60
2022-12-09T02:59:01.846Z,9.50
2022-12-09T03:01:48.287Z,9.20
2022-12-09T03:04:23.905Z,9.90
2022-12-09T03:06:59.376Z,9.87
2022-12-09T03:09:34.009Z,9.47
2022-12-09T03:12:09.054Z,9.23
2022-12-09T03:14:43.200Z,9.23
2022-12-09T03:17:41.230Z,9.50
2022-12-09T03:20:19.046Z,9.70
2022-12-09T03:22:47.755Z,9.03
2022-12-09T03:25:26.370Z,9.87
2022-12-09T03:28:04.606Z,9.83
2022-12-09T03:30:35.494Z,8.77
2022-12-09T03:33:04.561Z,10.07
2022-12-09T03:35:41.741Z,10.43
2022-12-09T03:38:14.038Z,9.13
2022-12-09T03:40:42.639Z,10.60
2022-12-09T03:43:19.351Z,10.47
2022-12-09T03:45:47.354Z,9.83
2022-12-09T03:48:15.457Z,8.90
2022-12-09T03:50:54.149Z,9.37
2022-12-09T03:53:32.857Z,9.43
2022-12-09T03:56:11.571Z,9.13
2022-12-09T03:58:44.780Z,9.90
2022-12-09T04:01:12.903Z,10.33
2022-12-09T04:03:40.017Z,10.13
2022-12-09T04:06:07.486Z,9.90
2022-12-09T04:08:34.565Z,9.70
2022-12-09T04:11:01.515Z,8.90
2022-12-09T04:13:28.246Z,9.97
2022-12-09T04:15:54.973Z,9.33
2022-12-09T04:18:22.380Z,10.03
2022-12-09T04:20:49.160Z,10.23
2022-12-09T04:23:16.267Z,8.23
2022-12-09T04:25:43.258Z,9.43
2022-12-09T04:28:10.274Z,9.73
2022-12-09T04:30:37.375Z,8.27
2022-12-09T04:33:04.610Z,8.83
2022-12-09T04:35:31.366Z,9.67
2022-12-09T04:37:58.076Z,8.60
2022-12-09T04:40:25.140Z,8.70
2022-12-09T04:42:52.149Z,8.67
2022-12-09T04:45:18.861Z,9.90
2022-12-09T04:47:45.769Z,10.00
2022-12-09T04:50:13.618Z,10.00
2022-12-09T04:52:40.964Z,8.87
2022-12-09T04:55:08.373Z,9.23
2022-12-09T04:57:36.319Z,9.07
2022-12-09T05:00:07.482Z,8.73
2022-12-09T05:02:34.963Z,9.50
2022-12-09T05:05:03.000Z,9.23
2022-12-09T05:07:33.677Z,9.13
2022-12-09T05:10:00.701Z,9.30
2022-12-09T05:12:28.083Z,9.30
2022-12-09T05:14:55.183Z,9.23
2022-12-09T05:17:22.131Z,8.80
2022-12-09T05:19:49.273Z,8.80
2022-12-09T05:22:17.912Z,8.03
2022-12-09T05:24:46.875Z,8.63
2022-12-09T05:27:15.030Z,9.03
2022-12-09T05:29:41.971Z,8.90
2022-12-09T05:32:09.723Z,9.80
2022-12-09T05:34:36.779Z,8.57
2022-12-09T05:37:03.750Z,8.70
2022-12-09T05:39:33.395Z,8.40
2022-12-09T05:42:00.554Z,9.63
2022-12-09T05:44:27.399Z,8.70
2022-12-09T05:46:54.291Z,8.37
2022-12-09T05:49:21.205Z,9.37
2022-12-09T05:51:48.505Z,8.37
2022-12-09T05:54:15.753Z,7.63
2022-12-09T05:56:47.793Z,8.17
2022-12-09T05:59:15.721Z,9.50
2022-12-09T06:01:42.720Z,8.30
2022-12-09T06:04:09.843Z,10.03
2022-12-09T06:06:37.200Z,8.97
2022-12-09T06:09:08.600Z,8.97
2022-12-09T06:11:35.707Z,9.63
2022-12-09T06:14:03.011Z,9.10
2022-12-09T06:16:29.989Z,9.83
2022-12-09T06:18:57.091Z,9.13
2022-12-09T06:21:24.527Z,9.90
2022-12-09T06:23:53.043Z,11.47
2022-12-09T06:26:27.777Z,10.67
2022-12-09T06:28:56.171Z,11.23
2022-12-09T06:31:24.015Z,11.03
2022-12-09T06:33:56.302Z,10.47
2022-12-09T06:36:26.925Z,9.20
2022-12-09T06:38:55.336Z,8.73
2022-12-09T06:41:23.264Z,9.93
2022-12-09T06:43:50.756Z,9.30
2022-12-09T06:46:23.703Z,9.93
2022-12-09T06:48:52.067Z,9.37
2022-12-09T06:51:20.386Z,10.37
2022-12-09T06:53:48.221Z,9.70
2022-12-09T06:56:16.278Z,11.13
2022-12-09T06:58:45.820Z,9.60
2022-12-09T07:01:20.834Z,9.90
2022-12-09T07:03:52.687Z,9.70
2022-12-09T07:06:29.114Z,9.60
2022-12-09T07:09:03.451Z,10.13
2022-12-09T07:11:31.030Z,9.50
2022-12-09T07:13:58.307Z,8.87
2022-12-09T07:16:25.856Z,8.37
2022-12-09T07:18:53.673Z,9.17
2022-12-09T07:21:23.498Z,9.23
2022-12-09T07:23:51.343Z,8.80
2022-12-09T07:26:19.169Z,9.53
2022-12-09T07:28:47.584Z,9.33
2022-12-09T07:31:33.803Z,10.00
2022-12-09T07:34:01.133Z,10.60
2022-12-09T07:36:31.100Z,9.90
2022-12-09T07:39:13.400Z,9.03
2022-12-09T07:41:40.783Z,9.27
2022-12-09T07:44:08.763Z,9.00
2022-12-09T07:46:35.665Z,10.50
2022-12-09T07:49:05.420Z,9.23
2022-12-09T07:51:33.395Z,9.50
2022-12-09T07:54:00.446Z,9.67
2022-12-09T07:56:28.654Z,9.47
2022-12-09T07:58:57.300Z,9.30
2022-12-09T08:01:28.676Z,11.37
2022-12-09T08:03:56.855Z,11.30
2022-12-09T08:06:27.389Z,10.80
2022-12-09T08:08:57.613Z,11.17
2022-12-09T08:11:27.525Z,13.33
2022-12-09T08:13:58.303Z,11.60
2022-12-09T08:16:26.516Z,14.63
2022-12-09T08:18:55.464Z,14.97
2022-12-09T08:21:29.294Z,13.53
2022-12-09T08:23:59.840Z,14.20
2022-12-09T08:26:32.382Z,13.77
2022-12-09T08:29:00.351Z,14.33
2022-12-09T08:31:28.667Z,13.97
2022-12-09T08:33:56.004Z,16.07
2022-12-09T08:36:27.568Z,16.47
2022-12-09T08:38:55.614Z,15.20
2022-12-09T08:41:38.199Z,15.07
2022-12-09T08:44:07.375Z,16.87
2022-12-09T08:46:37.293Z,16.60
2022-12-09T08:49:06.428Z,16.07
2022-12-09T08:51:34.435Z,16.43
2022-12-09T08:54:03.383Z,15.40
2022-12-09T08:56:30.653Z,16.23
2022-12-09T08:58:58.024Z,16.37
2022-12-09T09:01:32.351Z,16.10
2022-12-09T09:04:03.292Z,14.37
2022-12-09T09:06:31.204Z,14.87
2022-12-09T09:08:58.618Z,15.40
2022-12-09T09:11:26.997Z,15.40
2022-12-09T09:13:54.582Z,16.43
2022-12-09T09:16:24.832Z,17.27
2022-12-09T09:18:52.552Z,17.00
2022-12-09T09:21:23.423Z,16.10
2022-12-09T09:23:51.050Z,13.63
2022-12-09T09:26:25.961Z,16.47
2022-12-09T09:28:54.470Z,15.37
2022-12-09T09:31:24.060Z,15.23
2022-12-09T09:33:52.067Z,13.40
2022-12-09T09:36:24.881Z,12.40
2022-12-09T09:38:55.025Z,14.33
2022-12-09T09:41:43.783Z,15.70
2022-12-09T09:44:25.871Z,16.03
2022-12-09T09:46:55.810Z,14.37
2022-12-09T09:49:43.779Z,16.13
2022-12-09T09:52:19.066Z,13.43
2022-12-09T09:54:46.591Z,14.27
2022-12-09T09:57:27.638Z,12.50
2022-12-09T10:00:38.251Z,11.80
2022-12-09T10:03:19.829Z,12.47
2022-12-09T10:05:55.500Z,13.70
2022-12-09T10:08:44.557Z,12.43
2022-12-09T10:11:23.437Z,12.67
2022-12-09T10:14:50.413Z,13.00
2022-12-09T10:17:34.336Z,11.63
2022-12-09T10:20:19.243Z,12.37
2022-12-09T10:23:01.119Z,11.90
2022-12-09T10:25:36.562Z,11.90
2022-12-09T10:28:29.188Z,12.40
2022-12-09T10:30:57.520Z,12.43
2022-12-09T10:33:32.526Z,12.77
2022-12-09T10:35:59.485Z,12.30
2022-12-09T10:38:30.308Z,11.73
2022-12-09T10:42:12.913Z,11.67
2022-12-09T10:44:40.377Z,11.77
2022-12-09T10:47:28.228Z,10.87
2022-12-09T10:49:57.171Z,13.35
2022-12-09T10:52:30.411Z,10.90
2022-12-09T10:54:58.127Z,12.45
2022-12-09T10:57:29.685Z,10.70
2022-12-09T11:00:22.851Z,10.80
2022-12-09T11:02:55.657Z,10.13
2022-12-09T11:05:29.018Z,9.80
2022-12-09T11:07:58.613Z,9.43
2022-12-09T11:10:29.570Z,9.13
2022-12-09T11:13:06.398Z,8.40
2022-12-09T11:16:04.270Z,8.80
2022-12-09T11:18:42.684Z,8.43
2022-12-09T11:21:36.871Z,9.07
2022-12-09T11:24:04.889Z,8.10
2022-12-09T11:26:38.373Z,8.13
2022-12-09T11:29:18.934Z,7.47
2022-12-09T11:31:47.338Z,7.30
2022-12-09T11:34:22.602Z,7.50
2022-12-09T11:36:54.591Z,6.53
2022-12-09T11:39:35.121Z,6.77
2022-12-09T11:42:19.076Z,7.43
2022-12-09T11:45:02.180Z,7.80
2022-12-09T11:50:32.132Z,6.97
2022-12-09T11:53:20.343Z,6.83
2022-12-09T11:55:55.278Z,6.33
2022-12-09T11:59:00.681Z,6.30
2022-12-09T12:02:01.406Z,5.93
2022-12-09T12:05:02.404Z,6.87
2022-12-09T12:07:47.277Z,6.03
2022-12-09T12:10:25.589Z,5.57
2022-12-09T12:13:17.999Z,6.87
2022-12-09T12:16:12.509Z,6.37
2022-12-09T12:19:05.612Z,5.93
2022-12-09T12:21:47.147Z,6.10
2022-12-09T12:24:55.688Z,6.50
2022-12-09T12:27:47.188Z,6.47
2022-12-09T12:30:19.348Z,6.10
2022-12-09T12:36:36.001Z,6.27
2022-12-09T12:39:24.479Z,7.17
2022-12-09T12:42:25.462Z,7.00
2022-12-09T12:45:40.245Z,6.17
2022-12-09T12:48:23.275Z,5.97
2022-12-09T12:51:08.208Z,6.27
2022-12-09T12:54:12.767Z,4.93
2022-12-09T12:57:17.855Z,5.47
2022-12-09T13:00:12.871Z,5.70
2022-12-09T13:03:38.611Z,6.03
2022-12-09T13:06:12.199Z,6.63
2022-12-09T13:09:03.040Z,5.53
2022-12-09T13:11:47.465Z,5.57
2022-12-09T13:14:23.004Z,5.57
2022-12-09T13:16:52.192Z,4.97
2022-12-09T13:19:27.237Z,4.87
2022-12-09T13:21:54.954Z,4.70
2022-12-09T13:24:42.256Z,6.13
2022-12-09T13:27:22.593Z,5.57
2022-12-09T13:30:07.096Z,5.70
2022-12-09T13:33:17.012Z,5.80
2022-12-09T13:35:56.646Z,6.50
2022-12-09T13:38:32.392Z,6.03
2022-12-09T13:40:59.371Z,6.30
2022-12-09T13:43:31.497Z,5.30
2022-12-09T13:46:00.943Z,5.23
2022-12-09T13:48:30.479Z,5.63
2022-12-09T13:50:59.974Z,5.87
2022-12-09T13:53:41.321Z,5.70
2022-12-09T13:56:39.110Z,6.20
2022-12-09T13:59:36.427Z,6.23
2022-12-09T14:02:24.928Z,6.50
2022-12-09T14:05:05.476Z,5.30
2022-12-09T14:07:49.908Z,5.70
2022-12-09T14:10:46.236Z,5.13
2022-12-09T14:13:34.824Z,5.80
2022-12-09T14:16:28.296Z,5.67
2022-12-09T14:18:56.721Z,4.93
2022-12-09T14:21:30.732Z,4.90
2022-12-09T14:24:11.128Z,5.20
2022-12-09T14:26:53.786Z,5.53
2022-12-09T14:29:42.456Z,5.50
2022-12-09T14:32:49.429Z,5.63
2022-12-09T14:35:25.253Z,5.10
2022-12-09T14:38:12.935Z,5.43
2022-12-09T14:41:10.831Z,5.73
2022-12-09T14:43:57.416Z,5.33
2022-12-09T14:46:30.688Z,5.00
2022-12-09T14:49:12.086Z,5.20
2022-12-09T14:51:49.920Z,5.17
2022-12-09T14:54:29.261Z,4.93
2022-12-09T14:57:00.736Z,4.63
2022-12-09T14:59:32.064Z,4.17
2022-12-09T15:02:07.785Z,4.40
2022-12-09T15:04:42.063Z,3.90
2022-12-09T15:07:22.223Z,4.10
2022-12-09T15:10:01.118Z,4.67
2022-12-09T15:12:36.476Z,3.93
2022-12-09T15:15:19.289Z,4.23
2022-12-09T15:17:56.840Z,4.20
2022-12-09T15:20:37.544Z,5.80
2022-12-09T15:23:43.412Z,9.70
2022-12-09T15:26:30.286Z,10.20
2022-12-09T15:28:59.260Z,8.87
2022-12-09T15:31:29.791Z,8.17
2022-12-09T15:34:07.677Z,6.70
2022-12-09T15:36:41.600Z,6.60
2022-12-09T15:39:18.910Z,6.70
2022-12-09T15:42:08.193Z,6.23
2022-12-09T15:45:15.518Z,5.17
2022-12-09T15:47:56.444Z,6.07
2022-12-09T15:50:42.179Z,5.87
2022-12-09T15:53:27.894Z,6.00
2022-12-09T15:56:11.468Z,6.50
2022-12-09T15:58:56.873Z,6.63
2022-12-09T16:01:32.292Z,7.77
2022-12-09T16:04:02.328Z,7.70
2022-12-09T16:06:35.641Z,8.27
2022-12-09T16:09:11.988Z,9.10
2022-12-09T16:11:49.337Z,9.63
2022-12-09T16:14:18.680Z,8.57
2022-12-09T16:16:51.697Z,7.47
2022-12-09T16:19:31.085Z,7.07
2022-12-09T16:22:27.855Z,6.37
2022-12-09T16:25:14.279Z,6.83
2022-12-09T16:27:48.634Z,6.80
2022-12-09T16:30:30.474Z,6.50
2022-12-09T16:33:00.842Z,6.47
2022-12-09T16:35:37.732Z,8.47
2022-12-09T16:38:10.401Z,8.97
2022-12-09T16:40:58.344Z,8.47
2022-12-09T16:43:27.576Z,8.23
2022-12-09T16:46:00.264Z,8.27
2022-12-09T16:48:29.698Z,7.67
2022-12-09T16:51:13.915Z,7.80
2022-12-09T16:53:49.233Z,6.37
2022-12-09T16:56:25.771Z,6.10
2022-12-09T16:58:53.868Z,5.67
2022-12-09T17:01:26.351Z,6.00
2022-12-09T17:04:03.948Z,6.00
2022-12-09T17:06:31.700Z,5.90
2022-12-09T17:08:58.469Z,5.90
2022-12-09T17:11:25.161Z,4.67
2022-12-09T17:13:52.378Z,5.50
2022-12-09T17:16:22.049Z,5.87
2022-12-09T17:18:49.685Z,7.10
2022-12-09T17:21:16.939Z,7.63
2022-12-09T17:23:44.423Z,8.57
2022-12-09T17:26:16.612Z,7.27
2022-12-09T17:28:45.088Z,8.40
2022-12-09T17:31:19.836Z,8.67
2022-12-09T17:33:47.192Z,7.33
2022-12-09T17:36:16.485Z,7.10
2022-12-09T17:38:43.424Z,6.73
2022-12-09T17:41:15.844Z,7.27
2022-12-09T17:43:43.063Z,6.97
2022-12-09T17:46:12.075Z,7.40
2022-12-09T17:48:40.052Z,7.30
2022-12-09T17:51:09.930Z,6.07
2022-12-09T17:53:39.777Z,6.93
2022-12-09T17:56:10.541Z,7.00
2022-12-09T17:58:37.485Z,6.83
2022-12-09T18:01:05.572Z,6.40
2022-12-09T18:03:54.988Z,6.43
2022-12-09T18:06:19.169Z,6.77
2022-12-09T18:08:45.894Z,7.03
2022-12-09T18:11:12.884Z,7.67
2022-12-09T18:13:40.017Z,7.83
2022-12-09T18:16:11.815Z,7.23
2022-12-09T18:18:40.910Z,6.57
2022-12-09T18:21:15.123Z,6.63
2022-12-09T18:23:42.790Z,6.47
2022-12-09T18:26:16.142Z,5.60
2022-12-09T18:28:43.716Z,6.10
2022-12-09T18:31:18.836Z,6.20
2022-12-09T18:33:46.438Z,6.07
2022-12-09T18:36:16.837Z,5.97
2022-12-09T18:38:45.943Z,5.73
2022-12-09T18:41:25.205Z,5.30
2022-12-09T18:43:54.060Z,6.03
2022-12-09T18:46:27.828Z,6.00
2022-12-09T18:49:00.670Z,5.80
2022-12-09T18:51:28.782Z,6.60
2022-12-09T18:53:58.646Z,6.80
2022-12-09T18:56:26.052Z,7.03
2022-12-09T18:59:09.224Z,7.23
2022-12-09T19:01:44.532Z,7.13
2022-12-09T19:04:30.106Z,6.57
2022-12-09T19:06:59.889Z,7.80
2022-12-09T19:09:33.177Z,10.20
2022-12-09T19:12:37.807Z,9.70
2022-12-09T19:14:51.990Z,11.03
2022-12-09T19:17:18.834Z,9.50
2022-12-09T19:19:47.119Z,8.33
2022-12-09T19:22:14.499Z,9.00
2022-12-09T19:24:43.402Z,7.83
2022-12-09T19:27:10.524Z,9.47
2022-12-09T19:29:37.486Z,11.03
2022-12-09T19:32:13.934Z,11.23
2022-12-09T19:34:50.621Z,11.47
2022-12-09T19:37:17.380Z,11.00
2022-12-09T19:39:46.426Z,11.70
2022-12-09T19:42:13.406Z,11.57
2022-12-09T19:47:26.992Z,13.07
2022-12-09T19:49:53.682Z,11.00
2022-12-09T19:52:20.493Z,10.47
2022-12-09T19:54:47.223Z,10.63
2022-12-09T19:57:13.953Z,9.43
2022-12-09T19:59:40.689Z,9.10
2022-12-09T20:02:11.775Z,8.43
2022-12-09T20:04:48.768Z,8.40
2022-12-09T20:07:16.961Z,8.67
2022-12-09T20:09:43.737Z,8.37
2022-12-09T20:12:10.528Z,9.40
2022-12-09T20:14:38.682Z,9.80
2022-12-09T20:17:05.412Z,10.80
2022-12-09T20:19:32.372Z,11.90
2022-12-09T20:21:59.133Z,13.30
2022-12-09T20:24:26.683Z,12.43
2022-12-09T20:26:53.466Z,13.40
2022-12-09T20:29:20.152Z,12.20
2022-12-09T20:31:47.104Z,12.97
2022-12-09T20:34:16.341Z,12.37
2022-12-09T20:36:45.698Z,10.83
2022-12-09T20:39:18.135Z,11.70
2022-12-09T20:41:46.350Z,10.20
2022-12-09T20:44:15.499Z,11.10
2022-12-09T20:46:48.356Z,10.07
2022-12-09T20:49:15.129Z,11.50
2022-12-09T20:51:45.210Z,11.87
2022-12-09T20:54:12.656Z,13.40
2022-12-09T20:56:39.533Z,12.80
2022-12-09T20:59:08.655Z,13.27
2022-12-09T21:01:37.193Z,13.90
2022-12-09T21:04:06.575Z,13.70
2022-12-09T21:06:38.668Z,14.73
2022-12-09T21:09:26.955Z,12.57
2022-12-09T21:11:54.131Z,10.43
2022-12-09T21:14:20.973Z,10.63
2022-12-09T21:16:50.395Z,10.40
2022-12-09T21:19:24.601Z,9.57
2022-12-09T21:21:52.630Z,9.33
2022-12-09T21:24:21.690Z,9.00
2022-12-09T21:26:48.406Z,9.37
2022-12-09T21:29:15.648Z,9.10
2022-12-09T21:31:43.985Z,9.13
2022-12-09T21:34:10.867Z,9.47
2022-12-09T21:36:42.578Z,10.20
2022-12-09T21:39:13.636Z,9.03
2022-12-09T21:41:41.719Z,8.43
2022-12-09T21:44:14.100Z,8.77
2022-12-09T21:46:41.387Z,9.13
2022-12-09T21:49:08.123Z,9.80
2022-12-09T21:51:35.364Z,8.57
2022-12-09T21:54:03.052Z,8.13
2022-12-09T21:56:34.875Z,9.37
2022-12-09T21:59:05.823Z,10.40
2022-12-09T22:01:39.604Z,10.10
2022-12-09T22:04:12.862Z,9.50
2022-12-09T22:06:40.096Z,10.57
2022-12-09T22:09:08.612Z,12.73
2022-12-09T22:11:38.010Z,12.27
2022-12-09T22:14:07.144Z,16.67
2022-12-09T22:16:38.785Z,17.90
2022-12-09T22:19:08.300Z,16.97
2022-12-09T22:21:36.595Z,18.87
2022-12-09T22:24:06.860Z,20.43
2022-12-09T22:26:34.014Z,21.07
2022-12-09T22:29:06.287Z,19.10
2022-12-09T22:31:37.063Z,18.70
2022-12-09T22:34:08.695Z,15.67
2022-12-09T22:36:36.784Z,15.30
2022-12-09T22:39:06.760Z,16.73
2022-12-09T22:41:33.969Z,17.37
2022-12-09T22:44:00.848Z,16.93
2022-12-09T22:46:30.951Z,16.17
2022-12-09T22:49:02.608Z,16.10
2022-12-09T22:51:33.519Z,15.57
2022-12-09T22:54:04.199Z,15.80
2022-12-09T22:56:30.978Z,14.60
2022-12-09T22:58:59.909Z,14.20
2022-12-09T23:01:31.900Z,13.80
2022-12-09T23:04:00.724Z,13.30
2022-12-09T23:06:29.178Z,14.43
2022-12-09T23:08:56.704Z,17.20
2022-12-09T23:11:27.354Z,17.37
2022-12-09T23:13:54.466Z,16.57
2022-12-09T23:16:24.999Z,16.17
2022-12-09T23:18:54.821Z,16.43
2022-12-09T23:21:27.309Z,16.07
2022-12-09T23:23:58.060Z,14.93
2022-12-09T23:26:27.723Z,13.73
2022-12-09T23:29:00.624Z,14.27
2022-12-09T23:31:32.433Z,14.37
2022-12-09T23:34:01.003Z,13.97
2022-12-09T23:36:37.772Z,14.37
2022-12-09T23:39:13.525Z,14.97
2022-12-09T23:41:42.389Z,14.47
2022-12-09T23:44:18.256Z,11.90
2022-12-09T23:46:45.628Z,14.17
2022-12-09T23:49:12.704Z,15.57
2022-12-09T23:51:43.673Z,12.97
2022-12-09T23:54:14.376Z,13.47
2022-12-09T23:56:44.042Z,12.57
2022-12-09T23:59:14.132Z,12.40
